Cohagen, Montana
Current Conditions -  °F | °C
As of 8:53 PM on Friday 24 Oct 2014 (Local Time) from KMLS Reporting Station
Overcast Overcast  
Wind Chill: 52°   Ceiling: 10000
Heat Index: 52°   Visibility: 10mi
Dew Point: 33°   Wind: 7mph
Humidity: 49%   Direction: 240°WSW
Pressure: 30.09"   Gusts: NA
Location:  47.05°N, 106.62°W
Report Text: KMLS 250253Z AUTO 24006KT 10SM OVC100 11/01 A3009 RMK AO2 SLP193 T01110006 53008
Loading
Personal Weather Stations






























Interactive Weather Map
Tropical Storm Tracking
New forecast layout! Learn more

10-Day Weather Forecast

Advertisements
Track Severe Weather on mobile